sensor_id;sensor_type;location;lat;lon;timestamp;pressure;altitude;pressure_sealevel;temperature;humidity
67818;BME280;54614;47.576;7.524;2023-12-22T00:02:08;97791.19;;;21.92;40.30
67818;BME280;54614;47.576;7.524;2023-12-22T00:04:34;97791.19;;;21.92;40.26
67818;BME280;54614;47.576;7.524;2023-12-22T00:06:59;97799.22;;;21.92;40.33
67818;BME280;54614;47.576;7.524;2023-12-22T00:09:25;97810.94;;;21.91;40.24
67818;BME280;54614;47.576;7.524;2023-12-22T00:11:51;97811.16;;;21.89;40.13
67818;BME280;54614;47.576;7.524;2023-12-22T00:14:17;97812.19;;;21.88;40.17
67818;BME280;54614;47.576;7.524;2023-12-22T00:16:42;97819.19;;;21.89;40.32
67818;BME280;54614;47.576;7.524;2023-12-22T00:19:08;97837.13;;;21.88;40.29
67818;BME280;54614;47.576;7.524;2023-12-22T00:21:34;97824.16;;;21.85;40.27
67818;BME280;54614;47.576;7.524;2023-12-22T00:24:00;97842.88;;;21.85;40.05
67818;BME280;54614;47.576;7.524;2023-12-22T00:26:26;97847.22;;;21.86;40.15
67818;BME280;54614;47.576;7.524;2023-12-22T00:28:51;97842.06;;;21.85;40.07
67818;BME280;54614;47.576;7.524;2023-12-22T00:31:17;97834.03;;;21.85;40.33
67818;BME280;54614;47.576;7.524;2023-12-22T00:33:43;97825.41;;;21.83;40.14
67818;BME280;54614;47.576;7.524;2023-12-22T00:36:09;97836.09;;;21.83;40.30
67818;BME280;54614;47.576;7.524;2023-12-22T00:38:35;97853.00;;;21.83;40.25
67818;BME280;54614;47.576;7.524;2023-12-22T00:41:01;97863.91;;;21.82;40.25
67818;BME280;54614;47.576;7.524;2023-12-22T00:43:27;97864.94;;;21.81;40.05
67818;BME280;54614;47.576;7.524;2023-12-22T00:45:52;97885.53;;;21.80;40.00
67818;BME280;54614;47.576;7.524;2023-12-22T00:48:18;97875.66;;;21.81;40.31
67818;BME280;54614;47.576;7.524;2023-12-22T00:50:44;97880.19;;;21.80;40.05
67818;BME280;54614;47.576;7.524;2023-12-22T00:53:09;97899.94;;;21.79;39.98
67818;BME280;54614;47.576;7.524;2023-12-22T00:55:35;97899.13;;;21.79;40.10
67818;BME280;54614;47.576;7.524;2023-12-22T00:58:01;97899.13;;;21.79;39.84
67818;BME280;54614;47.576;7.524;2023-12-22T01:00:27;97884.72;;;21.80;39.82
67818;BME280;54614;47.576;7.524;2023-12-22T01:02:52;97876.06;;;21.78;40.02
67818;BME280;54614;47.576;7.524;2023-12-22T01:05:18;97876.06;;;21.78;39.91
67818;BME280;54614;47.576;7.524;2023-12-22T01:07:44;97879.56;;;21.78;39.89
67818;BME280;54614;47.576;7.524;2023-12-22T01:10:10;97901.19;;;21.77;39.79
67818;BME280;54614;47.576;7.524;2023-12-22T01:12:36;97895.84;;;21.77;40.02
67818;BME280;54614;47.576;7.524;2023-12-22T01:15:02;97894.81;;;21.78;39.74
67818;BME280;54614;47.576;7.524;2023-12-22T01:17:28;97894.19;;;21.76;39.89
67818;BME280;54614;47.576;7.524;2023-12-22T01:19:53;97894.19;;;21.76;40.04
67818;BME280;54614;47.576;7.524;2023-12-22T01:22:19;97892.56;;;21.75;40.05
67818;BME280;54614;47.576;7.524;2023-12-22T01:24:45;97888.03;;;21.75;39.91
67818;BME280;54614;47.576;7.524;2023-12-22T01:27:11;97888.22;;;21.74;39.92
67818;BME280;54614;47.576;7.524;2023-12-22T01:29:37;97889.06;;;21.74;39.73
67818;BME280;54614;47.576;7.524;2023-12-22T01:32:04;97895.44;;;21.73;39.79
67818;BME280;54614;47.576;7.524;2023-12-22T01:34:30;97885.75;;;21.72;39.97
67818;BME280;54614;47.576;7.524;2023-12-22T01:36:55;97882.06;;;21.73;40.00
67818;BME280;54614;47.576;7.524;2023-12-22T01:39:21;97875.88;;;21.73;39.96
67818;BME280;54614;47.576;7.524;2023-12-22T01:41:47;97876.69;;;21.73;39.81
67818;BME280;54614;47.576;7.524;2023-12-22T01:44:13;97881.22;;;21.73;39.98
67818;BME280;54614;47.576;7.524;2023-12-22T01:46:39;97877.94;;;21.71;39.82
67818;BME280;54614;47.576;7.524;2023-12-22T01:49:07;97882.88;;;21.67;40.91
67818;BME280;54614;47.576;7.524;2023-12-22T01:51:37;97887.63;;;21.72;40.51
67818;BME280;54614;47.576;7.524;2023-12-22T01:54:06;97888.66;;;21.71;39.95
67818;BME280;54614;47.576;7.524;2023-12-22T01:56:32;97894.81;;;21.71;39.93
67818;BME280;54614;47.576;7.524;2023-12-22T01:59:00;97894.81;;;21.71;40.04
67818;BME280;54614;47.576;7.524;2023-12-22T02:01:28;97908.41;;;21.70;40.00
67818;BME280;54614;47.576;7.524;2023-12-22T02:03:54;97899.56;;;21.69;39.96
67818;BME280;54614;47.576;7.524;2023-12-22T02:06:21;97904.91;;;21.69;39.89
67818;BME280;54614;47.576;7.524;2023-12-22T02:08:48;97902.44;;;21.68;39.91
67818;BME280;54614;47.576;7.524;2023-12-22T02:11:14;97909.44;;;21.69;39.90
67818;BME280;54614;47.576;7.524;2023-12-22T02:13:44;97913.38;;;21.66;40.11
67818;BME280;54614;47.576;7.524;2023-12-22T02:16:39;97915.84;;;21.68;39.87
67818;BME280;54614;47.576;7.524;2023-12-22T02:22:06;97907.19;;;21.66;39.57
67818;BME280;54614;47.576;7.524;2023-12-22T02:24:32;97910.91;;;21.65;39.50
67818;BME280;54614;47.576;7.524;2023-12-22T02:29:54;97930.25;;;21.60;39.65
67818;BME280;54614;47.576;7.524;2023-12-22T02:32:36;97944.66;;;21.66;39.26
67818;BME280;54614;47.576;7.524;2023-12-22T02:35:10;97939.72;;;21.56;39.21
67818;BME280;54614;47.576;7.524;2023-12-22T02:37:39;97940.56;;;21.57;39.28
67818;BME280;54614;47.576;7.524;2023-12-22T02:40:08;97934.56;;;21.61;39.27
67818;BME280;54614;47.576;7.524;2023-12-22T02:42:37;97934.56;;;21.61;39.39
67818;BME280;54614;47.576;7.524;2023-12-22T02:45:05;97936.44;;;21.61;39.26
67818;BME280;54614;47.576;7.524;2023-12-22T02:47:31;97942.81;;;21.60;39.56
67818;BME280;54614;47.576;7.524;2023-12-22T02:49:59;97934.78;;;21.60;39.27
67818;BME280;54614;47.576;7.524;2023-12-22T02:52:24;97921.41;;;21.60;39.50
67818;BME280;54614;47.576;7.524;2023-12-22T02:54:50;97936.63;;;21.59;39.15
67818;BME280;54614;47.576;7.524;2023-12-22T02:57:16;97948.16;;;21.60;39.23
67818;BME280;54614;47.576;7.524;2023-12-22T02:59:42;97943.84;;;21.59;39.67
67818;BME280;54614;47.576;7.524;2023-12-22T03:02:08;97941.16;;;21.59;39.31
67818;BME280;54614;47.576;7.524;2023-12-22T03:04:33;97947.56;;;21.58;39.38
67818;BME280;54614;47.576;7.524;2023-12-22T03:06:59;97959.91;;;21.59;39.33
67818;BME280;54614;47.576;7.524;2023-12-22T03:09:25;97972.66;;;21.57;39.37
67818;BME280;54614;47.576;7.524;2023-12-22T03:11:50;97971.00;;;21.55;39.62
67818;BME280;54614;47.576;7.524;2023-12-22T03:14:20;97968.34;;;21.55;39.41
67818;BME280;54614;47.576;7.524;2023-12-22T03:16:45;97978.00;;;21.57;39.67
67818;BME280;54614;47.576;7.524;2023-12-22T03:19:11;97986.88;;;21.57;39.69
67818;BME280;54614;47.576;7.524;2023-12-22T03:21:37;97987.69;;;21.58;39.27
67818;BME280;54614;47.576;7.524;2023-12-22T03:24:03;97971.22;;;21.54;39.30
67818;BME280;54614;47.576;7.524;2023-12-22T03:26:29;97965.06;;;21.53;39.48
67818;BME280;54614;47.576;7.524;2023-12-22T03:28:54;97969.56;;;21.53;39.55
67818;BME280;54614;47.576;7.524;2023-12-22T03:31:20;97980.50;;;21.51;39.59
67818;BME280;54614;47.576;7.524;2023-12-22T03:33:46;97990.97;;;21.53;39.49
67818;BME280;54614;47.576;7.524;2023-12-22T03:36:11;97991.81;;;21.53;39.51
67818;BME280;54614;47.576;7.524;2023-12-22T03:38:37;97995.31;;;21.54;39.48
67818;BME280;54614;47.576;7.524;2023-12-22T03:41:03;97999.84;;;21.53;39.29
67818;BME280;54614;47.576;7.524;2023-12-22T03:43:29;97996.34;;;21.53;39.61
67818;BME280;54614;47.576;7.524;2023-12-22T03:45:57;97997.56;;;21.50;39.53
67818;BME280;54614;47.576;7.524;2023-12-22T03:48:22;98010.75;;;21.52;39.66
67818;BME280;54614;47.576;7.524;2023-12-22T03:50:48;97992.84;;;21.52;39.49
67818;BME280;54614;47.576;7.524;2023-12-22T03:53:14;98011.56;;;21.52;39.27
67818;BME280;54614;47.576;7.524;2023-12-22T03:55:40;98001.91;;;21.51;39.46
67818;BME280;54614;47.576;7.524;2023-12-22T03:58:06;98002.09;;;21.50;39.26
67818;BME280;54614;47.576;7.524;2023-12-22T04:00:33;98009.09;;;21.51;39.39
67818;BME280;54614;47.576;7.524;2023-12-22T04:02:59;98007.44;;;21.50;39.40
67818;BME280;54614;47.576;7.524;2023-12-22T04:05:25;98009.31;;;21.49;39.57
67818;BME280;54614;47.576;7.524;2023-12-22T04:07:51;98007.66;;;21.48;39.37
67818;BME280;54614;47.576;7.524;2023-12-22T04:10:17;97999.41;;;21.50;39.29
67818;BME280;54614;47.576;7.524;2023-12-22T04:12:43;97998.81;;;21.48;39.46
67818;BME280;54614;47.576;7.524;2023-12-22T04:15:09;98000.44;;;21.49;39.61
67818;BME280;54614;47.576;7.524;2023-12-22T04:17:35;98003.13;;;21.49;39.50
67818;BME280;54614;47.576;7.524;2023-12-22T04:20:01;98010.53;;;21.47;39.59
67818;BME280;54614;47.576;7.524;2023-12-22T04:22:27;98017.53;;;21.48;39.33
67818;BME280;54614;47.576;7.524;2023-12-22T04:24:53;98017.53;;;21.48;39.58
67818;BME280;54614;47.576;7.524;2023-12-22T04:27:19;98014.03;;;21.47;39.63
67818;BME280;54614;47.576;7.524;2023-12-22T04:29:44;98015.88;;;21.47;39.33
67818;BME280;54614;47.576;7.524;2023-12-22T04:32:10;98030.91;;;21.48;39.25
67818;BME280;54614;47.576;7.524;2023-12-22T04:34:36;98031.94;;;21.47;39.47
67818;BME280;54614;47.576;7.524;2023-12-22T04:37:01;98045.94;;;21.49;39.33
67818;BME280;54614;47.576;7.524;2023-12-22T04:39:30;98055.00;;;21.48;39.55
67818;BME280;54614;47.576;7.524;2023-12-22T04:41:55;98045.31;;;21.47;39.57
67818;BME280;54614;47.576;7.524;2023-12-22T04:44:21;98046.16;;;21.47;39.33
67818;BME280;54614;47.576;7.524;2023-12-22T04:46:47;98043.66;;;21.46;39.30
67818;BME280;54614;47.576;7.524;2023-12-22T04:49:13;98033.78;;;21.46;39.34
67818;BME280;54614;47.576;7.524;2023-12-22T04:51:38;98021.44;;;21.45;39.36
67818;BME280;54614;47.576;7.524;2023-12-22T04:54:10;98019.59;;;21.46;39.53
67818;BME280;54614;47.576;7.524;2023-12-22T04:56:36;98028.66;;;21.45;39.51
67818;BME280;54614;47.576;7.524;2023-12-22T04:59:02;98030.50;;;21.44;39.33
67818;BME280;54614;47.576;7.524;2023-12-22T05:01:28;98041.41;;;21.43;39.65
67818;BME280;54614;47.576;7.524;2023-12-22T05:03:54;98047.56;;;21.43;39.61
67818;BME280;54614;47.576;7.524;2023-12-22T05:06:20;98042.22;;;21.43;39.33
67818;BME280;54614;47.576;7.524;2023-12-22T05:08:45;98041.59;;;21.41;39.31
67818;BME280;54614;47.576;7.524;2023-12-22T05:11:12;98032.56;;;21.42;39.53
67818;BME280;54614;47.576;7.524;2023-12-22T05:13:38;98033.59;;;21.41;39.47
67818;BME280;54614;47.576;7.524;2023-12-22T05:16:04;98040.78;;;21.41;39.28
67818;BME280;54614;47.576;7.524;2023-12-22T05:18:30;98046.97;;;21.41;39.49
67818;BME280;54614;47.576;7.524;2023-12-22T05:20:56;98048.00;;;21.40;39.30
67818;BME280;54614;47.576;7.524;2023-12-22T05:23:21;98039.13;;;21.40;39.52
67818;BME280;54614;47.576;7.524;2023-12-22T05:25:48;98048.81;;;21.41;39.31
67818;BME280;54614;47.576;7.524;2023-12-22T05:28:14;98038.09;;;21.41;39.31
67818;BME280;54614;47.576;7.524;2023-12-22T05:30:39;98030.91;;;21.41;39.27
67818;BME280;54614;47.576;7.524;2023-12-22T05:33:05;98040.78;;;21.41;39.41
67818;BME280;54614;47.576;7.524;2023-12-22T05:35:31;98038.31;;;21.39;39.37
67818;BME280;54614;47.576;7.524;2023-12-22T05:37:57;98036.66;;;21.38;39.37
67818;BME280;54614;47.576;7.524;2023-12-22T05:40:22;98039.97;;;21.40;39.19
67818;BME280;54614;47.576;7.524;2023-12-22T05:42:48;98042.84;;;21.39;39.24
67818;BME280;54614;47.576;7.524;2023-12-22T05:45:15;98042.84;;;21.39;39.14
67818;BME280;54614;47.576;7.524;2023-12-22T05:47:41;98040.38;;;21.37;39.14
67818;BME280;54614;47.576;7.524;2023-12-22T05:50:08;98048.41;;;21.37;38.96
67818;BME280;54614;47.576;7.524;2023-12-22T05:52:33;98049.00;;;21.39;41.21
67818;BME280;54614;47.576;7.524;2023-12-22T05:54:59;98054.78;;;21.43;40.33
67818;BME280;54614;47.576;7.524;2023-12-22T05:57:26;98057.25;;;21.44;40.58
67818;BME280;54614;47.576;7.524;2023-12-22T05:59:51;98064.25;;;21.45;40.16
67818;BME280;54614;47.576;7.524;2023-12-22T06:02:18;98060.75;;;21.45;39.71
67818;BME280;54614;47.576;7.524;2023-12-22T06:04:43;98054.16;;;21.41;39.93
67818;BME280;54614;47.576;7.524;2023-12-22T06:07:10;98045.94;;;21.42;39.60
67818;BME280;54614;47.576;7.524;2023-12-22T06:09:36;98072.47;;;21.44;39.55
67818;BME280;54614;47.576;7.524;2023-12-22T06:12:03;98063.84;;;21.42;39.40
67818;BME280;54614;47.576;7.524;2023-12-22T06:14:28;98049.41;;;21.36;39.77
67818;BME280;54614;47.576;7.524;2023-12-22T06:16:54;98063.63;;;21.37;39.84
67818;BME280;54614;47.576;7.524;2023-12-22T06:19:23;98070.00;;;21.36;39.40
67818;BME280;54614;47.576;7.524;2023-12-22T06:21:50;98066.91;;;21.39;39.90
67818;BME280;54614;47.576;7.524;2023-12-22T06:24:16;98083.16;;;21.37;41.11
67818;BME280;54614;47.576;7.524;2023-12-22T06:26:42;98086.50;;;21.52;45.37
67818;BME280;54614;47.576;7.524;2023-12-22T06:29:08;98090.81;;;21.60;45.27
67818;BME280;54614;47.576;7.524;2023-12-22T06:31:35;98087.53;;;21.58;43.93
67818;BME280;54614;47.576;7.524;2023-12-22T06:34:00;98091.63;;;21.54;43.21
67818;BME280;54614;47.576;7.524;2023-12-22T06:36:28;98102.97;;;21.56;41.47
67818;BME280;54614;47.576;7.524;2023-12-22T06:38:55;98101.72;;;21.59;41.08
67818;BME280;54614;47.576;7.524;2023-12-22T06:41:27;98103.38;;;21.66;41.17
67818;BME280;54614;47.576;7.524;2023-12-22T06:43:53;98104.84;;;21.69;43.70
67818;BME280;54614;47.576;7.524;2023-12-22T06:46:24;98102.97;;;21.69;41.73
67818;BME280;54614;47.576;7.524;2023-12-22T06:48:54;98109.16;;;21.70;41.10
67818;BME280;54614;47.576;7.524;2023-12-22T06:51:23;98107.72;;;21.67;40.86
67818;BME280;54614;47.576;7.524;2023-12-22T06:53:50;98116.97;;;21.65;40.89
67818;BME280;54614;47.576;7.524;2023-12-22T06:56:24;98106.28;;;21.65;40.58
67818;BME280;54614;47.576;7.524;2023-12-22T06:58:53;98117.81;;;21.65;40.85
67818;BME280;54614;47.576;7.524;2023-12-22T07:01:30;98107.31;;;21.70;40.86
67818;BME280;54614;47.576;7.524;2023-12-22T07:03:57;98096.41;;;21.72;40.75
67818;BME280;54614;47.576;7.524;2023-12-22T07:06:24;98099.69;;;21.74;43.71
67818;BME280;54614;47.576;7.524;2023-12-22T07:14:05;98116.78;;;21.93;44.34
67818;BME280;54614;47.576;7.524;2023-12-22T07:16:31;98112.25;;;21.86;42.83
67818;BME280;54614;47.576;7.524;2023-12-22T07:18:57;98120.28;;;21.86;42.13
67818;BME280;54614;47.576;7.524;2023-12-22T07:21:22;98135.53;;;21.86;42.09
67818;BME280;54614;47.576;7.524;2023-12-22T07:23:48;98129.75;;;21.82;41.82
67818;BME280;54614;47.576;7.524;2023-12-22T07:26:14;98129.16;;;21.87;41.46
67818;BME280;54614;47.576;7.524;2023-12-22T07:28:39;98136.16;;;21.88;41.49
67818;BME280;54614;47.576;7.524;2023-12-22T07:31:05;98138.84;;;21.88;41.50
67818;BME280;54614;47.576;7.524;2023-12-22T07:33:31;98147.91;;;21.94;41.25
67818;BME280;54614;47.576;7.524;2023-12-22T07:35:57;98148.09;;;21.92;41.37
67818;BME280;54614;47.576;7.524;2023-12-22T07:38:23;98145.22;;;21.94;41.01
67818;BME280;54614;47.576;7.524;2023-12-22T07:40:49;98143.78;;;21.98;41.19
67818;BME280;54614;47.576;7.524;2023-12-22T07:43:15;98146.47;;;21.98;40.97
67818;BME280;54614;47.576;7.524;2023-12-22T07:45:41;98144.63;;;22.05;40.97
67818;BME280;54614;47.576;7.524;2023-12-22T07:48:07;98138.47;;;22.04;41.01
67818;BME280;54614;47.576;7.524;2023-12-22T07:50:34;98136.59;;;22.05;40.74
67818;BME280;54614;47.576;7.524;2023-12-22T07:52:59;98146.91;;;22.08;40.71
67818;BME280;54614;47.576;7.524;2023-12-22T07:55:25;98135.38;;;22.07;40.43
67818;BME280;54614;47.576;7.524;2023-12-22T07:57:51;98137.03;;;22.08;40.58
67818;BME280;54614;47.576;7.524;2023-12-22T08:00:18;98143.00;;;22.10;40.58
67818;BME280;54614;47.576;7.524;2023-12-22T08:02:44;98150.41;;;22.15;40.19
67818;BME280;54614;47.576;7.524;2023-12-22T08:05:13;98152.25;;;22.14;40.16
67818;BME280;54614;47.576;7.524;2023-12-22T08:07:39;98158.44;;;22.15;40.40
67818;BME280;54614;47.576;7.524;2023-12-22T08:10:05;98156.78;;;22.21;39.96
67818;BME280;54614;47.576;7.524;2023-12-22T08:12:31;98155.16;;;22.19;40.15
67818;BME280;54614;47.576;7.524;2023-12-22T08:14:58;98168.34;;;22.21;40.24
67818;BME280;54614;47.576;7.524;2023-12-22T08:17:24;98166.47;;;22.22;40.04
67818;BME280;54614;47.576;7.524;2023-12-22T08:19:50;98166.91;;;22.25;40.03
67818;BME280;54614;47.576;7.524;2023-12-22T08:22:16;98166.28;;;22.30;40.29
67818;BME280;54614;47.576;7.524;2023-12-22T08:24:41;98163.19;;;22.33;40.00
67818;BME280;54614;47.576;7.524;2023-12-22T08:27:08;98182.34;;;22.30;39.99
67818;BME280;54614;47.576;7.524;2023-12-22T08:29:34;98187.50;;;22.31;40.18
67818;BME280;54614;47.576;7.524;2023-12-22T08:32:00;98188.31;;;22.32;39.93
67818;BME280;54614;47.576;7.524;2023-12-22T08:34:29;98194.50;;;22.26;39.92
67818;BME280;54614;47.576;7.524;2023-12-22T08:36:55;98199.47;;;22.35;40.00
67818;BME280;54614;47.576;7.524;2023-12-22T08:39:21;98199.25;;;22.24;40.24
67818;BME280;54614;47.576;7.524;2023-12-22T08:41:47;98204.00;;;22.28;40.07
67818;BME280;54614;47.576;7.524;2023-12-22T08:44:13;98191.00;;;22.25;40.00
67818;BME280;54614;47.576;7.524;2023-12-22T08:46:42;98199.03;;;22.32;40.13
67818;BME280;54614;47.576;7.524;2023-12-22T08:49:17;98209.75;;;22.32;39.90
67818;BME280;54614;47.576;7.524;2023-12-22T08:51:43;98197.41;;;22.31;39.62
67818;BME280;54614;47.576;7.524;2023-12-22T08:54:09;98199.25;;;22.30;39.50
67818;BME280;54614;47.576;7.524;2023-12-22T08:56:35;98213.88;;;22.28;39.85
67818;BME280;54614;47.576;7.524;2023-12-22T08:59:01;98226.25;;;22.35;39.75
67818;BME280;54614;47.576;7.524;2023-12-22T09:01:27;98218.84;;;22.44;39.32
67818;BME280;54614;47.576;7.524;2023-12-22T09:03:52;98207.91;;;22.32;39.48
67818;BME280;54614;47.576;7.524;2023-12-22T09:06:23;98204.81;;;22.29;39.66
67818;BME280;54614;47.576;7.524;2023-12-22T09:08:50;98205.44;;;22.31;39.27
67818;BME280;54614;47.576;7.524;2023-12-22T09:11:17;98198.63;;;22.35;39.18
67818;BME280;54614;47.576;7.524;2023-12-22T09:13:44;98213.25;;;22.32;39.55
67818;BME280;54614;47.576;7.524;2023-12-22T09:16:10;98212.66;;;22.37;39.27
67818;BME280;54614;47.576;7.524;2023-12-22T09:18:36;98213.25;;;22.39;39.12
67818;BME280;54614;47.576;7.524;2023-12-22T09:21:02;98207.91;;;22.32;39.25
67818;BME280;54614;47.576;7.524;2023-12-22T09:23:29;98212.22;;;22.27;39.53
67818;BME280;54614;47.576;7.524;2023-12-22T09:25:55;98200.50;;;22.34;39.47
67818;BME280;54614;47.576;7.524;2023-12-22T09:28:21;98201.09;;;22.30;39.42
67818;BME280;54614;47.576;7.524;2023-12-22T09:30:47;98199.47;;;22.35;39.23
67818;BME280;54614;47.576;7.524;2023-12-22T09:33:13;98201.72;;;22.32;39.45
67818;BME280;54614;47.576;7.524;2023-12-22T09:35:38;98202.34;;;22.27;39.37
67818;BME280;54614;47.576;7.524;2023-12-22T09:38:11;98202.34;;;22.27;39.18
67818;BME280;54614;47.576;7.524;2023-12-22T09:40:38;98195.94;;;22.22;39.26
67818;BME280;54614;47.576;7.524;2023-12-22T09:43:06;98207.50;;;22.22;39.78
67818;BME280;54614;47.576;7.524;2023-12-22T09:45:33;98202.34;;;22.21;39.73
67818;BME280;54614;47.576;7.524;2023-12-22T09:48:01;98201.72;;;22.25;39.35
67818;BME280;54614;47.576;7.524;2023-12-22T09:50:30;98194.72;;;22.24;39.42
67818;BME280;54614;47.576;7.524;2023-12-22T09:52:57;98190.59;;;22.28;39.64
67818;BME280;54614;47.576;7.524;2023-12-22T09:55:24;98186.25;;;22.27;39.45
67818;BME280;54614;47.576;7.524;2023-12-22T09:57:52;98189.97;;;22.19;39.70
67818;BME280;54614;47.576;7.524;2023-12-22T10:00:18;98190.38;;;22.23;39.73
67818;BME280;54614;47.576;7.524;2023-12-22T10:02:44;98199.03;;;22.18;39.86
67818;BME280;54614;47.576;7.524;2023-12-22T10:05:11;98186.47;;;22.26;39.52
67818;BME280;54614;47.576;7.524;2023-12-22T10:07:46;98180.09;;;22.20;39.49
67818;BME280;54614;47.576;7.524;2023-12-22T10:10:13;98190.59;;;22.15;39.70
67818;BME280;54614;47.576;7.524;2023-12-22T10:12:41;98185.44;;;22.20;39.64
67818;BME280;54614;47.576;7.524;2023-12-22T10:15:12;98172.88;;;22.27;39.79
67818;BME280;54614;47.576;7.524;2023-12-22T10:17:39;98182.56;;;22.28;39.70
67818;BME280;54614;47.576;7.524;2023-12-22T10:20:06;98188.75;;;22.22;40.00
67818;BME280;54614;47.576;7.524;2023-12-22T10:22:32;98185.44;;;22.20;39.97
67818;BME280;54614;47.576;7.524;2023-12-22T10:24:57;98185.03;;;22.16;40.40
67818;BME280;54614;47.576;7.524;2023-12-22T10:27:23;98186.06;;;22.22;40.42
67818;BME280;54614;47.576;7.524;2023-12-22T10:29:50;98181.94;;;22.19;40.02
67818;BME280;54614;47.576;7.524;2023-12-22T10:32:20;98180.09;;;22.20;40.13
67818;BME280;54614;47.576;7.524;2023-12-22T10:34:45;98171.44;;;22.18;40.37
67818;BME280;54614;47.576;7.524;2023-12-22T10:37:11;98179.47;;;22.18;40.54
67818;BME280;54614;47.576;7.524;2023-12-22T10:39:40;98172.25;;;22.18;40.11
67818;BME280;54614;47.576;7.524;2023-12-22T10:42:07;98166.69;;;22.13;41.06
67818;BME280;54614;47.576;7.524;2023-12-22T10:44:33;98156.13;;;21.99;41.35
67818;BME280;54614;47.576;7.524;2023-12-22T10:47:00;98161.75;;;22.10;40.69
67818;BME280;54614;47.576;7.524;2023-12-22T10:49:26;98150.63;;;22.13;40.26
67818;BME280;54614;47.576;7.524;2023-12-22T10:51:52;98153.28;;;22.13;40.42
67818;BME280;54614;47.576;7.524;2023-12-22T10:54:19;98144.22;;;22.14;40.40
67818;BME280;54614;47.576;7.524;2023-12-22T10:56:45;98129.19;;;22.13;39.97
67818;BME280;54614;47.576;7.524;2023-12-22T10:59:12;98137.22;;;22.13;40.20
67818;BME280;54614;47.576;7.524;2023-12-22T11:01:38;98126.94;;;22.10;39.97
67818;BME280;54614;47.576;7.524;2023-12-22T11:04:09;98096.44;;;22.11;40.11
67818;BME280;54614;47.576;7.524;2023-12-22T11:06:42;98095.59;;;22.11;40.13
67818;BME280;54614;47.576;7.524;2023-12-22T11:09:10;98093.13;;;22.09;39.87
67818;BME280;54614;47.576;7.524;2023-12-22T11:11:38;98085.31;;;22.08;39.74
67818;BME280;54614;47.576;7.524;2023-12-22T11:14:06;98067.16;;;22.10;39.78
67818;BME280;54614;47.576;7.524;2023-12-22T11:16:34;98080.56;;;22.10;40.05
67818;BME280;54614;47.576;7.524;2023-12-22T11:19:03;98077.88;;;22.10;39.74
67818;BME280;54614;47.576;7.524;2023-12-22T11:21:30;98086.34;;;22.07;40.16
67818;BME280;54614;47.576;7.524;2023-12-22T11:23:57;98078.91;;;22.09;40.29
67818;BME280;54614;47.576;7.524;2023-12-22T11:26:24;98076.84;;;21.91;41.22
67818;BME280;54614;47.576;7.524;2023-12-22T11:28:52;98073.94;;;21.79;41.31
67818;BME280;54614;47.576;7.524;2023-12-22T11:31:19;98053.16;;;21.81;41.39
67818;BME280;54614;47.576;7.524;2023-12-22T11:33:50;98062.41;;;21.99;39.95
67818;BME280;54614;47.576;7.524;2023-12-22T11:36:18;98059.56;;;22.07;39.74
67818;BME280;54614;47.576;7.524;2023-12-22T11:38:45;98059.97;;;22.10;39.96
67818;BME280;54614;47.576;7.524;2023-12-22T11:41:17;98053.56;;;22.11;39.90
67818;BME280;54614;47.576;7.524;2023-12-22T11:43:46;98054.19;;;22.13;39.72
67818;BME280;54614;47.576;7.524;2023-12-22T11:46:16;98053.38;;;22.13;40.06
67818;BME280;54614;47.576;7.524;2023-12-22T11:48:49;98058.50;;;22.14;39.70
67818;BME280;54614;47.576;7.524;2023-12-22T11:51:16;98055.63;;;22.16;39.87
67818;BME280;54614;47.576;7.524;2023-12-22T11:53:43;98055.63;;;22.16;39.61
67818;BME280;54614;47.576;7.524;2023-12-22T11:56:11;98053.56;;;22.18;39.49
67818;BME280;54614;47.576;7.524;2023-12-22T11:58:45;98048.81;;;22.20;39.75
67818;BME280;54614;47.576;7.524;2023-12-22T12:01:18;98037.91;;;22.22;39.88
67818;BME280;54614;47.576;7.524;2023-12-22T12:03:58;98032.34;;;22.23;39.88
67818;BME280;54614;47.576;7.524;2023-12-22T12:08:54;98041.81;;;22.26;39.94
67818;BME280;54614;47.576;7.524;2023-12-22T12:11:22;98038.50;;;22.24;40.12
67818;BME280;54614;47.576;7.524;2023-12-22T12:13:50;98026.75;;;22.25;40.06
67818;BME280;54614;47.576;7.524;2023-12-22T12:16:20;98011.50;;;22.25;39.94
67818;BME280;54614;47.576;7.524;2023-12-22T12:18:50;98021.81;;;22.28;40.09
67818;BME280;54614;47.576;7.524;2023-12-22T12:21:18;98021.81;;;22.28;40.08
67818;BME280;54614;47.576;7.524;2023-12-22T12:23:44;98017.88;;;22.31;40.17
67818;BME280;54614;47.576;7.524;2023-12-22T12:26:11;98016.25;;;22.30;40.02
67818;BME280;54614;47.576;7.524;2023-12-22T12:28:38;98012.53;;;22.31;40.49
67818;BME280;54614;47.576;7.524;2023-12-22T12:31:06;98006.97;;;22.32;40.42
67818;BME280;54614;47.576;7.524;2023-12-22T12:33:32;98011.28;;;22.33;40.41
67818;BME280;54614;47.576;7.524;2023-12-22T12:36:00;98000.16;;;22.36;40.43
67818;BME280;54614;47.576;7.524;2023-12-22T12:39:17;97993.31;;;22.40;40.53
67818;BME280;54614;47.576;7.524;2023-12-22T12:41:53;97990.44;;;22.42;40.40
67818;BME280;54614;47.576;7.524;2023-12-22T12:44:21;97991.88;;;22.44;40.80
67818;BME280;54614;47.576;7.524;2023-12-22T12:46:48;97985.88;;;22.49;40.29
67818;BME280;54614;47.576;7.524;2023-12-22T12:49:14;98000.50;;;22.53;40.48
67818;BME280;54614;47.576;7.524;2023-12-22T12:51:48;97986.66;;;22.56;40.18
67818;BME280;54614;47.576;7.524;2023-12-22T12:54:15;97998.63;;;22.60;40.43
67818;BME280;54614;47.576;7.524;2023-12-22T12:56:46;97989.53;;;22.61;40.39
67818;BME280;54614;47.576;7.524;2023-12-22T12:59:16;97988.28;;;22.64;40.31
67818;BME280;54614;47.576;7.524;2023-12-22T13:01:47;97996.13;;;22.65;40.11
67818;BME280;54614;47.576;7.524;2023-12-22T13:04:14;98005.38;;;22.69;40.27
67818;BME280;54614;47.576;7.524;2023-12-22T13:06:47;97991.75;;;22.71;40.22
67818;BME280;54614;47.576;7.524;2023-12-22T13:09:14;98008.84;;;22.76;40.16
67818;BME280;54614;47.576;7.524;2023-12-22T13:11:41;98003.09;;;22.79;40.19
67818;BME280;54614;47.576;7.524;2023-12-22T13:14:21;98021.22;;;22.84;40.27